createdAt,value
2019-02-18T00:00:26.267Z,80.70
2019-02-18T00:02:55.665Z,80.70
2019-02-18T00:05:24.916Z,80.70
2019-02-18T00:07:54.379Z,80.80
2019-02-18T00:10:23.724Z,81.10
2019-02-18T00:12:53.371Z,81.10
2019-02-18T00:15:22.663Z,81.70
2019-02-18T00:17:52.015Z,81.10
2019-02-18T00:20:21.271Z,81.10
2019-02-18T00:22:50.647Z,81.10
2019-02-18T00:25:20.006Z,81.00
2019-02-18T00:27:49.347Z,81.00
2019-02-18T00:30:18.998Z,80.90
2019-02-18T00:32:48.458Z,80.70
2019-02-18T00:35:17.727Z,80.60
2019-02-18T00:37:47.015Z,80.50
2019-02-18T00:40:16.336Z,80.30
2019-02-18T00:42:45.646Z,80.30
2019-02-18T00:45:14.924Z,80.20
2019-02-18T00:47:44.224Z,80.10
2019-02-18T00:50:13.680Z,80.20
2019-02-18T00:52:42.958Z,80.10
2019-02-18T00:55:12.324Z,80.10
2019-02-18T00:57:41.610Z,80.20
2019-02-18T01:00:12.094Z,80.10
2019-02-18T01:02:41.474Z,80.20
2019-02-18T01:05:10.803Z,80.10
2019-02-18T01:07:40.131Z,79.90
2019-02-18T01:10:09.805Z,79.90
2019-02-18T01:12:39.074Z,79.90
2019-02-18T01:15:10.124Z,79.90
2019-02-18T01:17:39.494Z,79.70
2019-02-18T01:20:09.447Z,79.60
2019-02-18T01:22:38.718Z,79.80
2019-02-18T01:25:09.610Z,80.00
2019-02-18T01:27:38.868Z,79.90
2019-02-18T01:30:10.805Z,79.80
2019-02-18T01:32:40.090Z,79.60
2019-02-18T01:35:09.775Z,79.60
2019-02-18T01:37:45.681Z,79.50
2019-02-18T01:40:11.918Z,79.30
2019-02-18T01:42:41.273Z,79.30
2019-02-18T01:45:12.730Z,80.20
2019-02-18T01:47:42.037Z,79.50
2019-02-18T01:50:13.405Z,79.50
2019-02-18T01:52:43.185Z,79.60
2019-02-18T01:55:12.932Z,79.50
2019-02-18T01:57:42.706Z,79.40
2019-02-18T02:00:14.205Z,79.30
2019-02-18T02:02:43.839Z,79.40
2019-02-18T02:05:15.166Z,79.40
2019-02-18T02:07:44.389Z,79.40
2019-02-18T02:10:14.702Z,79.30
2019-02-18T02:12:44.077Z,79.50
2019-02-18T02:15:22.147Z,79.40
2019-02-18T02:17:51.452Z,79.20
2019-02-18T02:20:20.729Z,79.30
2019-02-18T02:22:49.999Z,79.50
2019-02-18T02:25:19.299Z,79.80
2019-02-18T02:27:48.625Z,80.30
2019-02-18T02:30:17.925Z,80.50
2019-02-18T02:32:47.248Z,80.50
2019-02-18T02:35:16.619Z,80.60
2019-02-18T02:37:45.994Z,80.70
2019-02-18T02:40:15.242Z,80.80
2019-02-18T02:42:44.616Z,81.20
2019-02-18T02:45:13.860Z,81.30
2019-02-18T02:47:43.180Z,81.40
2019-02-18T02:50:14.338Z,81.60
2019-02-18T02:52:43.740Z,81.80
2019-02-18T02:55:13.062Z,82.00
2019-02-18T02:57:42.469Z,82.20
2019-02-18T03:00:11.784Z,82.60
2019-02-18T03:02:41.152Z,82.80
2019-02-18T03:05:10.561Z,83.10
2019-02-18T03:07:39.815Z,83.30
2019-02-18T03:10:09.119Z,83.70
2019-02-18T03:12:38.373Z,83.90
2019-02-18T03:15:07.826Z,84.00
2019-02-18T03:17:37.143Z,83.90
2019-02-18T03:20:06.456Z,84.00
2019-02-18T03:22:35.981Z,83.90
2019-02-18T03:25:17.161Z,84.00
2019-02-18T03:27:46.443Z,84.00
2019-02-18T03:30:35.141Z,84.20
2019-02-18T03:33:04.418Z,84.40
2019-02-18T03:35:33.795Z,84.60
2019-02-18T03:38:03.128Z,84.90
2019-02-18T03:40:32.395Z,85.30
2019-02-18T03:43:01.688Z,85.50
2019-02-18T03:45:30.960Z,85.60
2019-02-18T03:48:00.235Z,86.10
2019-02-18T03:50:29.601Z,86.60
2019-02-18T03:52:58.888Z,86.90
2019-02-18T03:55:28.218Z,87.10
2019-02-18T03:57:57.512Z,87.30
2019-02-18T04:00:26.864Z,87.20
2019-02-18T04:02:56.219Z,87.20
2019-02-18T04:05:25.508Z,87.60
2019-02-18T04:07:54.799Z,87.60
2019-02-18T04:10:24.055Z,87.60
2019-02-18T04:12:53.411Z,87.90
2019-02-18T04:15:22.726Z,88.00
2019-02-18T04:17:52.117Z,88.20
2019-02-18T04:20:21.353Z,88.40
2019-02-18T04:22:50.655Z,88.20
2019-02-18T04:25:19.983Z,87.90
2019-02-18T04:27:49.231Z,87.90
2019-02-18T04:30:18.603Z,88.00
2019-02-18T04:32:47.864Z,88.30
2019-02-18T04:35:17.143Z,88.30
2019-02-18T04:37:46.407Z,88.60
2019-02-18T04:40:15.756Z,88.40
2019-02-18T04:42:45.091Z,88.30
2019-02-18T04:45:14.491Z,88.10
2019-02-18T04:47:43.779Z,88.30
2019-02-18T04:50:13.043Z,88.30
2019-02-18T04:52:42.342Z,88.10
2019-02-18T04:55:11.875Z,88.00
2019-02-18T04:57:41.148Z,87.80
2019-02-18T05:00:10.815Z,88.00
2019-02-18T05:02:40.134Z,88.20
2019-02-18T05:05:09.664Z,88.20
2019-02-18T05:07:38.927Z,88.00
2019-02-18T05:10:08.938Z,87.90
2019-02-18T05:12:38.234Z,88.10
2019-02-18T05:15:07.903Z,88.30
2019-02-18T05:17:37.471Z,88.30
2019-02-18T05:20:06.782Z,88.30
2019-02-18T05:22:36.078Z,88.50
2019-02-18T05:25:05.386Z,88.60
2019-02-18T05:27:34.682Z,88.70
2019-02-18T05:30:04.030Z,88.80
2019-02-18T05:32:33.327Z,88.80
2019-02-18T05:35:02.580Z,88.80
2019-02-18T05:37:32.134Z,88.70
2019-02-18T05:40:01.347Z,88.70
2019-02-18T05:42:30.590Z,88.70
2019-02-18T05:44:59.870Z,88.70
2019-02-18T05:47:29.146Z,88.90
2019-02-18T05:49:58.435Z,89.10
2019-02-18T05:52:27.678Z,89.40
2019-02-18T05:54:56.957Z,89.60
2019-02-18T05:57:26.240Z,89.70
2019-02-18T05:59:55.557Z,89.90
2019-02-18T06:02:24.778Z,89.80
2019-02-18T06:04:54.139Z,90.00
2019-02-18T06:07:23.533Z,90.00
2019-02-18T06:09:53.402Z,90.00
2019-02-18T06:12:23.014Z,90.10
2019-02-18T06:14:52.304Z,90.10
2019-02-18T06:17:21.665Z,90.20
2019-02-18T06:19:50.963Z,90.20
2019-02-18T06:22:21.033Z,90.20
2019-02-18T06:24:50.902Z,90.20
2019-02-18T06:27:20.889Z,90.20
2019-02-18T06:29:50.945Z,90.30
2019-02-18T06:32:22.946Z,90.40
2019-02-18T06:34:52.193Z,90.40
2019-02-18T06:37:21.462Z,90.40
2019-02-18T06:39:50.710Z,90.50
2019-02-18T06:42:20.011Z,90.40
2019-02-18T06:45:26.657Z,90.50
2019-02-18T06:47:57.048Z,90.40
2019-02-18T06:50:26.841Z,90.40
2019-02-18T06:52:58.268Z,90.40
2019-02-18T06:55:27.693Z,90.50
2019-02-18T06:58:04.253Z,90.50
2019-02-18T07:00:55.402Z,90.40
2019-02-18T07:03:32.482Z,90.40
2019-02-18T07:06:06.093Z,90.40
2019-02-18T07:08:46.796Z,90.40
2019-02-18T07:11:38.565Z,90.40
2019-02-18T07:14:07.821Z,90.30
2019-02-18T07:16:37.105Z,90.30
2019-02-18T07:19:06.362Z,90.40
2019-02-18T07:21:35.641Z,90.40
2019-02-18T07:24:05.489Z,90.30
2019-02-18T07:26:36.461Z,90.30
2019-02-18T07:29:08.764Z,90.30
2019-02-18T07:31:38.628Z,90.30
2019-02-18T07:34:07.936Z,90.30
2019-02-18T07:36:37.228Z,90.30
2019-02-18T07:39:07.749Z,90.20
2019-02-18T07:41:37.056Z,90.30
2019-02-18T07:44:06.336Z,90.20
2019-02-18T07:46:36.016Z,90.20
2019-02-18T07:51:38.429Z,90.20
2019-02-18T07:54:07.663Z,90.20
2019-02-18T07:56:36.936Z,90.20
2019-02-18T07:59:06.283Z,90.10
2019-02-18T08:01:36.940Z,90.10
2019-02-18T08:04:06.566Z,90.00
2019-02-18T08:06:36.388Z,90.00
2019-02-18T08:09:06.979Z,90.00
2019-02-18T08:11:36.259Z,90.00
2019-02-18T08:14:05.487Z,90.00
2019-02-18T08:16:34.837Z,89.90
2019-02-18T08:19:04.088Z,89.80
2019-02-18T08:21:33.344Z,89.70
2019-02-18T08:24:02.631Z,89.70
2019-02-18T08:26:31.931Z,89.60
2019-02-18T08:29:01.199Z,89.60
2019-02-18T08:31:30.439Z,89.60
2019-02-18T08:33:59.730Z,89.50
2019-02-18T08:36:28.963Z,89.50
2019-02-18T08:38:58.232Z,89.50
2019-02-18T08:41:27.519Z,89.50
2019-02-18T08:43:56.919Z,89.40
2019-02-18T08:46:26.151Z,89.30
2019-02-18T08:48:55.578Z,89.30
2019-02-18T08:51:25.317Z,89.20
2019-02-18T08:54:00.995Z,89.30
2019-02-18T08:56:30.426Z,89.20
2019-02-18T08:58:59.647Z,89.60
2019-02-18T09:01:28.973Z,89.60
2019-02-18T09:03:58.171Z,89.50
2019-02-18T09:06:27.538Z,89.50
2019-02-18T09:08:57.405Z,89.40
2019-02-18T09:11:26.675Z,89.40
2019-02-18T09:13:56.273Z,89.30
2019-02-18T09:16:28.754Z,89.40
2019-02-18T09:18:58.034Z,89.30
2019-02-18T09:21:29.086Z,89.30
2019-02-18T09:24:03.462Z,89.30
2019-02-18T09:26:32.874Z,89.30
2019-02-18T09:29:02.596Z,89.40
2019-02-18T09:31:34.484Z,89.40
2019-02-18T09:34:03.782Z,89.30
2019-02-18T09:36:35.160Z,89.20
2019-02-18T09:39:06.372Z,89.30
2019-02-18T09:41:36.246Z,89.40
2019-02-18T09:44:05.899Z,89.50
2019-02-18T09:46:35.234Z,89.30
2019-02-18T09:49:04.542Z,89.40
2019-02-18T09:51:33.839Z,89.50
2019-02-18T09:54:03.146Z,89.30
2019-02-18T09:56:32.334Z,89.30
2019-02-18T09:59:01.590Z,89.30
2019-02-18T10:01:32.526Z,89.30
2019-02-18T10:04:02.339Z,89.20
2019-02-18T10:06:31.566Z,89.20
2019-02-18T10:09:00.853Z,89.20
2019-02-18T10:11:30.216Z,89.30
2019-02-18T10:13:59.454Z,89.20
2019-02-18T10:16:28.666Z,89.20
2019-02-18T10:18:57.910Z,89.20
2019-02-18T10:21:27.302Z,89.10
2019-02-18T10:23:56.537Z,89.10
2019-02-18T10:26:25.890Z,88.80
2019-02-18T10:28:55.183Z,88.50
2019-02-18T10:31:24.431Z,88.50
2019-02-18T10:33:53.708Z,88.30
2019-02-18T10:36:23.006Z,88.30
2019-02-18T10:38:52.289Z,87.90
2019-02-18T10:41:21.637Z,87.80
2019-02-18T10:43:50.883Z,87.40
2019-02-18T10:46:20.183Z,87.20
2019-02-18T10:48:49.486Z,86.80
2019-02-18T10:51:18.839Z,86.50
2019-02-18T10:53:48.133Z,86.20
2019-02-18T10:56:17.433Z,85.90
2019-02-18T10:58:47.050Z,85.60
2019-02-18T11:01:16.366Z,85.30
2019-02-18T11:03:45.725Z,84.90
2019-02-18T11:06:15.041Z,84.60
2019-02-18T11:08:45.341Z,84.50
2019-02-18T11:11:17.009Z,84.10
2019-02-18T11:13:45.521Z,83.80
2019-02-18T11:16:14.833Z,83.40
2019-02-18T11:18:44.120Z,83.00
2019-02-18T11:21:13.619Z,82.70
2019-02-18T11:23:42.996Z,82.40
2019-02-18T11:26:13.162Z,82.90
2019-02-18T11:28:42.869Z,81.90
2019-02-18T11:31:13.476Z,81.50
2019-02-18T11:33:43.218Z,80.80
2019-02-18T11:36:12.421Z,80.80
2019-02-18T11:38:41.724Z,80.40
2019-02-18T11:41:11.008Z,79.90
2019-02-18T11:43:40.316Z,79.50
2019-02-18T11:46:09.685Z,79.20
2019-02-18T11:48:39.539Z,78.80
2019-02-18T11:51:09.128Z,78.30
2019-02-18T11:53:38.416Z,77.80
2019-02-18T11:56:08.341Z,77.60
2019-02-18T11:58:37.596Z,76.80
2019-02-18T12:01:07.421Z,76.60
2019-02-18T12:03:36.729Z,76.30
2019-02-18T12:06:06.045Z,75.80
2019-02-18T12:08:35.285Z,75.40
2019-02-18T12:11:04.575Z,75.10
2019-02-18T12:13:35.514Z,74.50
2019-02-18T12:16:05.173Z,74.00
2019-02-18T12:18:34.861Z,73.60
2019-02-18T12:21:04.152Z,72.90
2019-02-18T12:23:33.539Z,72.20
2019-02-18T12:26:03.746Z,71.70
2019-02-18T12:28:33.962Z,71.10
2019-02-18T12:31:03.603Z,70.80
2019-02-18T12:33:32.938Z,70.40
2019-02-18T12:36:02.507Z,69.70
2019-02-18T12:38:32.481Z,69.10
2019-02-18T12:41:03.369Z,68.50
2019-02-18T12:43:33.389Z,68.30
2019-02-18T12:46:03.531Z,68.20
2019-02-18T12:48:35.327Z,68.20
2019-02-18T12:51:04.655Z,68.10
2019-02-18T12:53:34.023Z,67.90
2019-02-18T12:56:03.307Z,67.70
2019-02-18T12:58:32.659Z,67.50
2019-02-18T13:01:02.299Z,67.30
2019-02-18T13:03:32.184Z,66.90
2019-02-18T13:06:01.489Z,66.40
2019-02-18T13:08:31.763Z,65.90
2019-02-18T13:11:03.033Z,65.50
2019-02-18T13:13:32.359Z,65.90
2019-02-18T13:16:01.720Z,64.50
2019-02-18T13:18:31.979Z,64.30
2019-02-18T13:21:02.176Z,63.90
2019-02-18T13:23:31.483Z,63.70
2019-02-18T13:26:01.552Z,63.30
2019-02-18T13:28:31.502Z,62.90
2019-02-18T13:31:01.534Z,62.70
2019-02-18T13:33:31.475Z,62.60
2019-02-18T13:36:01.202Z,62.60
2019-02-18T13:38:30.494Z,62.60
2019-02-18T13:40:59.786Z,62.60
2019-02-18T13:43:30.657Z,62.40
2019-02-18T13:46:00.302Z,62.20
2019-02-18T13:48:30.101Z,62.80
2019-02-18T13:50:59.538Z,61.70
2019-02-18T13:53:30.054Z,61.70
2019-02-18T13:56:01.290Z,61.80
2019-02-18T13:58:32.454Z,61.90
2019-02-18T14:01:03.314Z,62.10
2019-02-18T14:03:35.230Z,62.50
2019-02-18T14:06:05.481Z,63.30
2019-02-18T14:08:35.062Z,64.00
2019-02-18T14:11:05.006Z,64.70
2019-02-18T14:13:35.062Z,65.00
2019-02-18T14:16:05.654Z,64.80
2019-02-18T14:18:34.897Z,64.50
2019-02-18T14:21:06.161Z,64.10
2019-02-18T14:23:35.669Z,63.80
2019-02-18T14:26:05.358Z,63.60
2019-02-18T14:28:36.917Z,63.30
2019-02-18T14:31:08.006Z,64.00
2019-02-18T14:33:37.789Z,63.10
2019-02-18T14:36:07.571Z,63.10
2019-02-18T14:38:37.344Z,63.10
2019-02-18T14:41:07.908Z,63.20
2019-02-18T14:43:37.463Z,63.10
2019-02-18T14:46:07.229Z,63.20
2019-02-18T14:48:38.409Z,63.10
2019-02-18T14:51:08.605Z,63.30
2019-02-18T14:53:38.730Z,63.40
2019-02-18T14:56:21.593Z,63.60
2019-02-18T14:58:50.933Z,63.70
2019-02-18T15:01:20.253Z,63.80
2019-02-18T15:03:49.681Z,63.80
2019-02-18T15:06:21.217Z,64.00
2019-02-18T15:08:50.893Z,64.20
2019-02-18T15:11:20.780Z,64.30
2019-02-18T15:13:50.249Z,64.60
2019-02-18T15:16:19.656Z,64.90
2019-02-18T15:18:49.462Z,65.40
2019-02-18T15:21:19.305Z,66.30
2019-02-18T15:23:48.856Z,67.20
2019-02-18T15:26:18.152Z,67.90
2019-02-18T15:28:47.556Z,68.70
2019-02-18T15:31:16.862Z,69.20
2019-02-18T15:33:46.132Z,69.70
2019-02-18T15:36:15.420Z,70.10
2019-02-18T15:38:45.873Z,70.70
2019-02-18T15:41:15.184Z,71.10
2019-02-18T15:43:44.444Z,71.60
2019-02-18T15:46:13.817Z,71.90
2019-02-18T15:48:43.112Z,72.20
2019-02-18T15:51:12.411Z,72.60
2019-02-18T15:53:42.366Z,72.90
2019-02-18T15:56:11.648Z,73.30
2019-02-18T15:58:41.765Z,73.60
2019-02-18T16:01:11.065Z,73.90
2019-02-18T16:03:40.335Z,74.30
2019-02-18T16:06:09.716Z,74.70
2019-02-18T16:08:39.052Z,74.90
2019-02-18T16:11:08.427Z,75.20
2019-02-18T16:13:37.812Z,76.30
2019-02-18T16:16:09.371Z,75.70
2019-02-18T16:18:38.656Z,75.90
2019-02-18T16:21:08.007Z,76.00
2019-02-18T16:23:37.291Z,76.00
2019-02-18T16:26:06.720Z,76.20
2019-02-18T16:28:36.071Z,76.40
2019-02-18T16:31:05.422Z,76.60
2019-02-18T16:33:34.716Z,76.80
2019-02-18T16:36:03.995Z,76.90
2019-02-18T16:38:33.303Z,77.20
2019-02-18T16:41:02.631Z,77.60
2019-02-18T16:43:32.323Z,77.90
2019-02-18T16:46:01.586Z,78.00
2019-02-18T16:48:31.199Z,78.00
2019-02-18T16:51:00.796Z,78.10
2019-02-18T16:53:30.143Z,78.10
2019-02-18T16:55:59.434Z,78.10
2019-02-18T16:58:28.830Z,78.30
2019-02-18T17:00:58.219Z,78.30
2019-02-18T17:03:27.591Z,78.50
2019-02-18T17:05:57.242Z,78.90
2019-02-18T17:08:26.518Z,78.80
2019-02-18T17:10:55.767Z,78.80
2019-02-18T17:13:25.155Z,78.70
2019-02-18T17:15:54.422Z,78.50
2019-02-18T17:18:23.778Z,78.50
2019-02-18T17:20:53.367Z,78.30
2019-02-18T17:23:22.658Z,78.30
2019-02-18T17:25:51.922Z,78.30
2019-02-18T17:28:21.210Z,78.10
2019-02-18T17:30:50.458Z,78.10
2019-02-18T17:33:19.815Z,78.30
2019-02-18T17:35:49.510Z,78.40
2019-02-18T17:38:18.878Z,78.30
2019-02-18T17:40:48.143Z,78.20
2019-02-18T17:43:17.471Z,78.10
2019-02-18T17:45:46.794Z,77.90
2019-02-18T17:48:16.162Z,77.80
2019-02-18T17:50:45.722Z,77.90
2019-02-18T17:53:15.098Z,78.00
2019-02-18T17:55:44.358Z,78.10
2019-02-18T17:58:13.660Z,78.20
2019-02-18T18:00:46.031Z,78.20
2019-02-18T18:03:15.418Z,78.00
2019-02-18T18:05:45.013Z,77.90
2019-02-18T18:08:14.270Z,77.90
2019-02-18T18:10:43.554Z,77.80
2019-02-18T18:13:12.934Z,77.80
2019-02-18T18:15:42.209Z,77.60
2019-02-18T18:18:11.603Z,77.50
2019-02-18T18:20:41.149Z,77.40
2019-02-18T18:23:11.430Z,77.30
2019-02-18T18:25:40.757Z,77.10
2019-02-18T18:28:10.018Z,77.00
2019-02-18T18:30:39.321Z,77.10
2019-02-18T18:33:08.665Z,76.80
2019-02-18T18:35:38.269Z,76.70
2019-02-18T18:38:07.549Z,76.60
2019-02-18T18:40:36.910Z,76.50
2019-02-18T18:43:06.295Z,76.30
2019-02-18T18:45:35.562Z,76.30
2019-02-18T18:48:04.889Z,76.40
2019-02-18T18:50:34.153Z,76.40
2019-02-18T18:53:03.449Z,76.40
2019-02-18T18:55:32.665Z,76.50
2019-02-18T18:58:02.113Z,76.80
2019-02-18T19:00:31.440Z,76.80
2019-02-18T19:03:01.210Z,76.80
2019-02-18T19:05:30.485Z,76.80
2019-02-18T19:07:59.889Z,76.60
2019-02-18T19:10:29.178Z,76.40
2019-02-18T19:12:58.521Z,76.40
2019-02-18T19:15:27.809Z,76.40
2019-02-18T19:17:57.365Z,76.30
2019-02-18T19:20:26.650Z,76.20
2019-02-18T19:22:56.032Z,75.90
2019-02-18T19:25:25.289Z,75.80
2019-02-18T19:27:54.584Z,75.80
2019-02-18T19:30:25.583Z,75.90
2019-02-18T19:32:54.848Z,76.00
2019-02-18T19:35:24.156Z,75.80
2019-02-18T19:37:53.493Z,75.80
2019-02-18T19:40:23.142Z,75.70
2019-02-18T19:42:52.417Z,75.80
2019-02-18T19:45:22.521Z,75.90
2019-02-18T19:47:52.129Z,76.10
2019-02-18T19:50:21.488Z,76.20
2019-02-18T19:52:50.844Z,76.00
2019-02-18T19:55:20.729Z,75.90
2019-02-18T19:57:49.986Z,75.90
2019-02-18T20:00:19.632Z,75.70
2019-02-18T20:02:48.973Z,75.60
2019-02-18T20:05:18.356Z,75.50
2019-02-18T20:07:47.836Z,75.50
2019-02-18T20:10:17.211Z,75.70
2019-02-18T20:12:46.588Z,76.00
2019-02-18T20:15:16.184Z,76.20
2019-02-18T20:17:45.536Z,76.20
2019-02-18T20:20:14.925Z,76.10
2019-02-18T20:22:44.279Z,76.00
2019-02-18T20:25:13.607Z,76.10
2019-02-18T20:27:42.998Z,76.10
2019-02-18T20:30:12.647Z,76.30
2019-02-18T20:32:41.984Z,76.50
2019-02-18T20:35:11.367Z,76.70
2019-02-18T20:37:40.620Z,76.70
2019-02-18T20:40:09.959Z,76.80
2019-02-18T20:42:39.591Z,76.60
2019-02-18T20:45:09.613Z,76.70
2019-02-18T20:47:38.918Z,76.60
2019-02-18T20:50:09.231Z,76.40
2019-02-18T20:52:38.611Z,76.30
2019-02-18T20:55:09.077Z,76.10
2019-02-18T20:57:38.658Z,75.90
2019-02-18T21:00:13.200Z,75.80
2019-02-18T21:02:42.546Z,75.60
2019-02-18T21:05:11.858Z,75.70
2019-02-18T21:07:41.126Z,75.70
2019-02-18T21:10:13.222Z,75.70
2019-02-18T21:12:42.610Z,75.80
2019-02-18T21:15:11.992Z,75.60
2019-02-18T21:17:41.358Z,75.60
2019-02-18T21:20:10.648Z,75.40
2019-02-18T21:22:39.958Z,75.30
2019-02-18T21:25:09.562Z,75.90
2019-02-18T21:27:38.842Z,74.90
2019-02-18T21:30:09.130Z,74.80
2019-02-18T21:32:39.975Z,74.80
2019-02-18T21:35:09.578Z,74.80
2019-02-18T21:37:38.847Z,74.90
2019-02-18T21:40:08.715Z,74.80
2019-02-18T21:42:37.970Z,74.80
2019-02-18T21:45:07.711Z,74.80
2019-02-18T21:47:37.000Z,74.90
2019-02-18T21:50:07.227Z,75.70
2019-02-18T21:52:36.798Z,74.80
2019-02-18T21:55:06.252Z,75.10
2019-02-18T21:57:35.934Z,75.70
2019-02-18T22:00:08.544Z,76.00
2019-02-18T22:02:37.846Z,76.20
2019-02-18T22:05:07.132Z,76.30
2019-02-18T22:07:36.842Z,76.40
2019-02-18T22:10:06.358Z,76.40
2019-02-18T22:12:35.625Z,76.30
2019-02-18T22:15:05.210Z,76.30
2019-02-18T22:17:34.577Z,76.30
2019-02-18T22:20:03.866Z,76.40
2019-02-18T22:22:33.622Z,76.40
2019-02-18T22:25:02.913Z,76.40
2019-02-18T22:27:32.166Z,76.20
2019-02-18T22:30:01.475Z,76.10
2019-02-18T22:32:30.726Z,76.20
2019-02-18T22:35:00.013Z,75.60
2019-02-18T22:37:29.485Z,76.00
2019-02-18T22:39:58.733Z,76.10
2019-02-18T22:42:28.813Z,76.10
2019-02-18T22:44:58.197Z,76.10
2019-02-18T22:47:27.580Z,76.30
2019-02-18T22:49:56.841Z,76.30
2019-02-18T22:52:26.229Z,76.30
2019-02-18T22:54:55.665Z,76.60
2019-02-18T22:57:25.356Z,76.70
2019-02-18T22:59:54.676Z,77.80
2019-02-18T23:02:23.987Z,77.20
2019-02-18T23:04:53.272Z,77.20
2019-02-18T23:07:22.648Z,77.10
2019-02-18T23:09:52.256Z,77.00
2019-02-18T23:12:21.604Z,77.00
2019-02-18T23:14:50.944Z,77.00
2019-02-18T23:17:20.248Z,76.90
2019-02-18T23:19:49.628Z,76.80
2019-02-18T23:22:18.948Z,77.10
2019-02-18T23:24:48.996Z,77.30
2019-02-18T23:27:18.324Z,77.50
2019-02-18T23:29:47.628Z,77.70
2019-02-18T23:32:16.880Z,78.10
2019-02-18T23:34:46.187Z,78.50
2019-02-18T23:37:15.568Z,78.70
2019-02-18T23:39:45.247Z,78.80
2019-02-18T23:42:15.373Z,79.10
2019-02-18T23:44:44.655Z,79.70
2019-02-18T23:47:13.956Z,80.10
2019-02-18T23:49:43.208Z,80.30
2019-02-18T23:52:12.492Z,80.40
2019-02-18T23:54:41.827Z,80.40
2019-02-18T23:57:11.168Z,80.40
2019-02-18T23:59:40.447Z,80.50
